»·PEaware :: N2570U KVCV-KWJF

N2570U :: KVCV-KWJF

FLIGHT INFORMATION

Flight Status: Arrived
Operator: Privately registered:
United States
More flights under this callsign
Pilot: Scott W. (31825)
Aircraft: PIPER PA-28 CHEROKEE ARCHER
(P28A)
More flights by this aircraft type
Origin: KVCV Socal Logistics
United States
Destination: KWJF Gen Fox
United States
More flights between these airports :: More routes between these airports
Route:
File this flight plan on PilotEdge
Remarks:
Altitude:
(Current/Filed)
4,500ft
Speed:
(Current/Filed)
110kts
Departed: 11-Nov-20 04:21 PM
Arrived: 11-Nov-20 04:51 PM
Distance/Time
Traveled:
42nm/0:30
Distance/Time
To Go:
Arrived

Flight Plot

Page will automatically refresh every two minutes.


Map Options




Map Legend


Flown Route
Filed Route
Departure Airport
Arrival Airport
Navaid (VOR, NDB)
Fix

Horizontal Profiles

Position Reports

Time Latitude Longitude Heading Altitude Ground
Speed
11-Nov-20 15:40 34.588333 -117.376341 313 2870ft 0kts
11-Nov-20 15:41 34.588333 -117.376341 313 2870ft 0kts
11-Nov-20 15:42 34.588333 -117.376341 313 2870ft 0kts
11-Nov-20 15:43 34.588333 -117.376341 313 2870ft 0kts
11-Nov-20 15:44 34.588333 -117.376341 313 2870ft 0kts
11-Nov-20 15:45 34.588333 -117.376341 313 2870ft 0kts
11-Nov-20 15:46 34.588333 -117.376341 313 2870ft 0kts
11-Nov-20 15:47 34.588333 -117.376341 313 2870ft 0kts
11-Nov-20 15:48 34.588333 -117.376341 313 2870ft 0kts
11-Nov-20 15:49 34.588333 -117.376341 313 2870ft 0kts
11-Nov-20 15:50 34.588333 -117.376341 313 2870ft 0kts
11-Nov-20 15:51 34.588333 -117.376341 313 2870ft 0kts
11-Nov-20 15:52 34.588648 -117.376742 314 2870ft 0kts
11-Nov-20 15:53 34.588648 -117.376742 314 2870ft 0kts
11-Nov-20 15:54 34.588648 -117.376742 314 2870ft 0kts
11-Nov-20 15:55 34.588648 -117.376742 314 2870ft 0kts
11-Nov-20 15:56 34.588648 -117.376742 314 2870ft 0kts
11-Nov-20 15:57 34.588648 -117.376742 314 2870ft 0kts
11-Nov-20 15:58 34.588648 -117.376742 314 2870ft 0kts
11-Nov-20 15:59 34.588648 -117.376742 314 2870ft 0kts
11-Nov-20 16:00 34.588648 -117.376742 314 2870ft 0kts
11-Nov-20 16:01 34.588648 -117.376742 314 2870ft 0kts
11-Nov-20 16:02 34.588648 -117.376742 314 2870ft 0kts
11-Nov-20 16:03 34.588648 -117.376742 314 2870ft 0kts
11-Nov-20 16:04 34.588648 -117.376742 314 2870ft 0kts
11-Nov-20 16:05 34.588648 -117.376742 314 2870ft 0kts
11-Nov-20 16:06 34.588648 -117.376742 314 2870ft 0kts
11-Nov-20 16:07 34.588648 -117.376742 314 2870ft 0kts
11-Nov-20 16:08 34.588648 -117.376742 314 2870ft 0kts
11-Nov-20 16:09 34.588648 -117.376742 314 2870ft 0kts
11-Nov-20 16:10 34.590063 -117.376142 44 2867ft 14kts
11-Nov-20 16:11 34.593276 -117.371329 89 2858ft 16kts
11-Nov-20 16:13 34.594175 -117.367774 10 2853ft 17kts
11-Nov-20 16:14 34.598864 -117.366598 11 2843ft 0kts
11-Nov-20 16:15 34.598864 -117.366598 11 2843ft 0kts
11-Nov-20 16:16 34.598864 -117.366598 11 2843ft 0kts
11-Nov-20 16:17 34.598864 -117.366598 11 2843ft 0kts
11-Nov-20 16:18 34.598883 -117.366595 5 2843ft 1kts
11-Nov-20 16:19 34.599150 -117.366598 9 2843ft 0kts
11-Nov-20 16:20 34.600252 -117.366734 273 2841ft 7kts
11-Nov-20 16:21 34.594174 -117.374167 224 2973ft 81kts
11-Nov-20 16:22 34.581539 -117.395322 288 3746ft 86kts
11-Nov-20 16:23 34.589218 -117.420723 296 4448ft 85kts
11-Nov-20 16:24 34.601519 -117.447148 306 4544ft 95kts
11-Nov-20 16:25 34.619336 -117.471659 307 4539ft 96kts
11-Nov-20 16:26 34.627219 -117.503270 277 4474ft 101kts
11-Nov-20 16:27 34.630736 -117.536967 284 4451ft 97kts
11-Nov-20 16:27 34.635611 -117.563774 285 4463ft 97kts
11-Nov-20 16:29 34.642963 -117.601349 286 4481ft 97kts
11-Nov-20 16:29 34.645832 -117.614031 286 4486ft 97kts
11-Nov-20 16:43 34.724595 -118.087779 273 4458ft 94kts
11-Nov-20 16:44 34.742470 -118.096748 54 4428ft 104kts
11-Nov-20 16:45 34.728012 -118.086953 266 4310ft 98kts
11-Nov-20 16:46 34.733903 -118.119874 294 4120ft 94kts
11-Nov-20 16:47 34.746202 -118.149394 304 3745ft 88kts
11-Nov-20 16:48 34.751585 -118.178218 252 2966ft 74kts
11-Nov-20 16:49 34.745383 -118.202292 255 2418ft 68kts
11-Nov-20 16:50 34.741510 -118.214636 207 2339ft 5kts
11-Nov-20 16:51 34.741287 -118.214765 204 2339ft 0kts
11-Nov-20 16:52 34.741287 -118.214765 204 2339ft 0kts
11-Nov-20 16:53 34.740894 -118.215567 251 2340ft 12kts
11-Nov-20 16:54 34.739271 -118.216946 254 2343ft 0kts
11-Nov-20 16:55 34.739270 -118.216952 254 2342ft 0kts
11-Nov-20 16:56 34.739270 -118.216952 254 2342ft 0kts
11-Nov-20 16:57 34.739270 -118.216952 254 2342ft 0kts
11-Nov-20 16:58 34.739270 -118.216952 254 2342ft 0kts

Navigation Log

Ident Type
Flight plan parsing failed, navigation log unavailable